Terminal Aerodrome Forecast
Issued by NWS Duluth, MN

Home | Current Version | Previous Version | Text Only | Print | Product List | Glossary On
Versions: 1 2 3 4 5 6 7 8 9 10 11 12 13 14 15 16 17 18 19 20 21 22 23 24 25
000
FTUS43 KDLH 292200 AAB
TAFINL
TAF AMD
KINL 292229Z 2922/3018 32014G22KT P6SM OVC025
     FM292300 33014G22KT P6SM SCT025
     FM300200 29005KT P6SM SCT010
     FM301300 19007KT P6SM SCT010 OVC060=

USA.gov is the U.S. government's official web portal to all federal, state and local government web resources and services.